sensor_id;sensor_type;location;lat;lon;timestamp;pressure;altitude;pressure_sealevel;temperature;humidity
32083;BME280;18597;48.328;7.932;2023-02-02T00:01:26;100572.06;;;4.83;100.00
32083;BME280;18597;48.328;7.932;2023-02-02T00:03:52;100565.06;;;4.82;100.00
32083;BME280;18597;48.328;7.932;2023-02-02T00:06:22;100569.91;;;4.91;100.00
32083;BME280;18597;48.328;7.932;2023-02-02T00:08:49;100571.28;;;4.81;100.00
32083;BME280;18597;48.328;7.932;2023-02-02T00:11:16;100569.28;;;4.86;100.00
32083;BME280;18597;48.328;7.932;2023-02-02T00:13:43;100566.16;;;4.78;100.00
32083;BME280;18597;48.328;7.932;2023-02-02T00:19:13;100563.75;;;4.90;100.00
32083;BME280;18597;48.328;7.932;2023-02-02T00:21:39;100567.91;;;4.96;100.00
32083;BME280;18597;48.328;7.932;2023-02-02T00:24:08;100573.50;;;4.90;100.00
32083;BME280;18597;48.328;7.932;2023-02-02T00:26:34;100581.03;;;4.80;100.00
32083;BME280;18597;48.328;7.932;2023-02-02T00:29:01;100583.09;;;4.73;100.00
32083;BME280;18597;48.328;7.932;2023-02-02T00:31:27;100578.56;;;4.76;100.00
32083;BME280;18597;48.328;7.932;2023-02-02T00:33:53;100583.25;;;4.70;100.00
32083;BME280;18597;48.328;7.932;2023-02-02T00:36:19;100572.06;;;4.64;100.00
32083;BME280;18597;48.328;7.932;2023-02-02T00:38:47;100564.91;;;4.66;100.00
32083;BME280;18597;48.328;7.932;2023-02-02T00:41:15;100564.13;;;4.83;100.00
32083;BME280;18597;48.328;7.932;2023-02-02T00:43:41;100554.97;;;4.71;100.00
32083;BME280;18597;48.328;7.932;2023-02-02T00:46:12;100557.19;;;4.80;100.00
32083;BME280;18597;48.328;7.932;2023-02-02T00:48:39;100550.88;;;4.83;100.00
32083;BME280;18597;48.328;7.932;2023-02-02T00:51:05;100551.19;;;4.77;100.00
32083;BME280;18597;48.328;7.932;2023-02-02T00:53:31;100552.09;;;4.76;100.00
32083;BME280;18597;48.328;7.932;2023-02-02T00:55:56;100540.78;;;4.91;100.00
32083;BME280;18597;48.328;7.932;2023-02-02T00:58:22;100542.81;;;4.86;100.00
32083;BME280;18597;48.328;7.932;2023-02-02T01:00:48;100542.03;;;4.84;100.00
32083;BME280;18597;48.328;7.932;2023-02-02T01:03:14;100538.13;;;4.91;100.00
32083;BME280;18597;48.328;7.932;2023-02-02T01:05:40;100546.31;;;4.86;100.00
32083;BME280;18597;48.328;7.932;2023-02-02T01:08:07;100549.31;;;4.79;100.00
32083;BME280;18597;48.328;7.932;2023-02-02T01:10:33;100554.13;;;4.70;100.00
32083;BME280;18597;48.328;7.932;2023-02-02T01:12:59;100562.41;;;4.82;100.00
32083;BME280;18597;48.328;7.932;2023-02-02T01:15:24;100564.78;;;4.88;100.00
32083;BME280;18597;48.328;7.932;2023-02-02T01:17:50;100569.50;;;4.81;100.00
32083;BME280;18597;48.328;7.932;2023-02-02T01:20:19;100578.72;;;4.72;100.00
32083;BME280;18597;48.328;7.932;2023-02-02T01:22:46;100583.00;;;4.75;100.00
32083;BME280;18597;48.328;7.932;2023-02-02T01:25:12;100587.09;;;5.01;100.00
32083;BME280;18597;48.328;7.932;2023-02-02T01:27:38;100585.78;;;4.91;100.00
32083;BME280;18597;48.328;7.932;2023-02-02T01:30:04;100588.44;;;4.91;100.00
32083;BME280;18597;48.328;7.932;2023-02-02T01:32:31;100591.41;;;4.85;100.00
32083;BME280;18597;48.328;7.932;2023-02-02T01:34:57;100589.16;;;4.76;100.00
32083;BME280;18597;48.328;7.932;2023-02-02T01:37:23;100597.69;;;4.82;100.00
32083;BME280;18597;48.328;7.932;2023-02-02T01:39:49;100597.81;;;4.98;100.00
32083;BME280;18597;48.328;7.932;2023-02-02T01:42:20;100600.84;;;4.90;100.00
32083;BME280;18597;48.328;7.932;2023-02-02T01:45:19;100602.91;;;5.03;100.00
32083;BME280;18597;48.328;7.932;2023-02-02T01:47:51;100600.44;;;4.99;100.00
32083;BME280;18597;48.328;7.932;2023-02-02T01:50:22;100589.09;;;4.96;100.00
32083;BME280;18597;48.328;7.932;2023-02-02T01:52:50;100590.03;;;4.95;100.00
32083;BME280;18597;48.328;7.932;2023-02-02T01:55:21;100576.59;;;4.99;100.00
32083;BME280;18597;48.328;7.932;2023-02-02T01:57:58;100586.94;;;5.04;100.00
32083;BME280;18597;48.328;7.932;2023-02-02T02:00:25;100579.16;;;5.01;100.00
32083;BME280;18597;48.328;7.932;2023-02-02T02:02:58;100578.16;;;5.04;100.00
32083;BME280;18597;48.328;7.932;2023-02-02T02:05:34;100586.38;;;4.97;100.00
32083;BME280;18597;48.328;7.932;2023-02-02T02:08:27;100574.91;;;5.16;100.00
32083;BME280;18597;48.328;7.932;2023-02-02T02:10:54;100575.97;;;5.12;100.00
32083;BME280;18597;48.328;7.932;2023-02-02T02:13:23;100570.47;;;5.16;100.00
32083;BME280;18597;48.328;7.932;2023-02-02T02:16:43;100565.63;;;5.07;100.00
32083;BME280;18597;48.328;7.932;2023-02-02T02:19:57;100561.03;;;5.11;100.00
32083;BME280;18597;48.328;7.932;2023-02-02T02:26:28;100562.38;;;5.19;100.00
32083;BME280;18597;48.328;7.932;2023-02-02T02:29:44;100552.31;;;5.09;100.00
32083;BME280;18597;48.328;7.932;2023-02-02T02:32:39;100563.00;;;5.24;100.00
32083;BME280;18597;48.328;7.932;2023-02-02T02:35:40;100549.66;;;5.45;100.00
32083;BME280;18597;48.328;7.932;2023-02-02T02:38:29;100553.06;;;5.29;100.00
32083;BME280;18597;48.328;7.932;2023-02-02T02:41:04;100548.66;;;5.28;100.00
32083;BME280;18597;48.328;7.932;2023-02-02T02:43:40;100557.72;;;5.24;100.00
32083;BME280;18597;48.328;7.932;2023-02-02T02:46:08;100558.34;;;5.29;100.00
32083;BME280;18597;48.328;7.932;2023-02-02T02:48:34;100551.19;;;5.32;100.00
32083;BME280;18597;48.328;7.932;2023-02-02T02:51:48;100558.88;;;5.36;100.00
32083;BME280;18597;48.328;7.932;2023-02-02T02:54:28;100547.31;;;5.39;100.00
32083;BME280;18597;48.328;7.932;2023-02-02T03:00:58;100570.03;;;5.25;100.00
32083;BME280;18597;48.328;7.932;2023-02-02T03:04:11;100561.59;;;5.17;100.00
32083;BME280;18597;48.328;7.932;2023-02-02T03:06:49;100560.00;;;5.13;100.00
32083;BME280;18597;48.328;7.932;2023-02-02T03:09:24;100562.44;;;5.18;100.00
32083;BME280;18597;48.328;7.932;2023-02-02T03:11:55;100566.53;;;5.25;100.00
32083;BME280;18597;48.328;7.932;2023-02-02T03:14:21;100568.53;;;5.20;100.00
32083;BME280;18597;48.328;7.932;2023-02-02T03:16:50;100566.16;;;5.14;100.00
32083;BME280;18597;48.328;7.932;2023-02-02T03:19:17;100569.38;;;5.20;100.00
32083;BME280;18597;48.328;7.932;2023-02-02T03:21:43;100559.78;;;5.37;100.00
32083;BME280;18597;48.328;7.932;2023-02-02T03:24:09;100565.94;;;5.37;100.00
32083;BME280;18597;48.328;7.932;2023-02-02T03:26:35;100569.88;;;5.28;100.00
32083;BME280;18597;48.328;7.932;2023-02-02T03:29:02;100563.81;;;5.44;100.00
32083;BME280;18597;48.328;7.932;2023-02-02T03:31:28;100557.63;;;5.26;100.00
32083;BME280;18597;48.328;7.932;2023-02-02T03:33:55;100557.72;;;5.24;100.00
32083;BME280;18597;48.328;7.932;2023-02-02T03:36:21;100558.41;;;5.28;100.00
32083;BME280;18597;48.328;7.932;2023-02-02T03:38:47;100546.84;;;5.12;100.00
32083;BME280;18597;48.328;7.932;2023-02-02T03:41:13;100555.91;;;5.25;100.00
32083;BME280;18597;48.328;7.932;2023-02-02T03:43:39;100541.53;;;5.31;100.00
32083;BME280;18597;48.328;7.932;2023-02-02T03:46:06;100537.84;;;5.33;100.00
32083;BME280;18597;48.328;7.932;2023-02-02T03:48:36;100548.63;;;5.30;100.00
32083;BME280;18597;48.328;7.932;2023-02-02T03:51:07;100558.41;;;5.28;100.00
32083;BME280;18597;48.328;7.932;2023-02-02T03:53:34;100555.72;;;5.29;100.00
32083;BME280;18597;48.328;7.932;2023-02-02T03:55:59;100554.41;;;5.19;100.00
32083;BME280;18597;48.328;7.932;2023-02-02T03:58:25;100554.78;;;5.31;100.00
32083;BME280;18597;48.328;7.932;2023-02-02T04:00:51;100556.94;;;5.22;100.00
32083;BME280;18597;48.328;7.932;2023-02-02T04:03:17;100555.44;;;5.17;100.00
32083;BME280;18597;48.328;7.932;2023-02-02T04:05:43;100561.44;;;5.20;100.00
32083;BME280;18597;48.328;7.932;2023-02-02T04:08:08;100557.34;;;5.13;100.00
32083;BME280;18597;48.328;7.932;2023-02-02T04:10:34;100566.50;;;5.08;100.00
32083;BME280;18597;48.328;7.932;2023-02-02T04:13:00;100561.41;;;5.03;100.00
32083;BME280;18597;48.328;7.932;2023-02-02T04:15:26;100564.63;;;5.10;100.00
32083;BME280;18597;48.328;7.932;2023-02-02T04:17:51;100562.44;;;5.18;100.00
32083;BME280;18597;48.328;7.932;2023-02-02T04:20:17;100555.16;;;5.23;100.00
32083;BME280;18597;48.328;7.932;2023-02-02T04:22:43;100561.44;;;5.20;100.00
32083;BME280;18597;48.328;7.932;2023-02-02T04:25:09;100569.47;;;5.19;100.00
32083;BME280;18597;48.328;7.932;2023-02-02T04:27:35;100564.72;;;5.25;100.00
32083;BME280;18597;48.328;7.932;2023-02-02T04:30:00;100561.50;;;5.19;100.00
32083;BME280;18597;48.328;7.932;2023-02-02T04:32:26;100559.16;;;5.13;100.00
32083;BME280;18597;48.328;7.932;2023-02-02T04:34:52;100556.78;;;5.25;100.00
32083;BME280;18597;48.328;7.932;2023-02-02T04:37:18;100557.94;;;5.20;100.00
32083;BME280;18597;48.328;7.932;2023-02-02T04:39:43;100563.72;;;5.28;100.00
32083;BME280;18597;48.328;7.932;2023-02-02T04:42:09;100562.09;;;5.43;100.00
32083;BME280;18597;48.328;7.932;2023-02-02T04:44:35;100558.13;;;5.34;100.00
32083;BME280;18597;48.328;7.932;2023-02-02T04:47:01;100549.66;;;5.45;100.00
32083;BME280;18597;48.328;7.932;2023-02-02T04:49:27;100563.81;;;5.44;100.00
32083;BME280;18597;48.328;7.932;2023-02-02T04:51:53;100563.75;;;5.45;100.00
32083;BME280;18597;48.328;7.932;2023-02-02T04:54:19;100575.59;;;5.38;100.00
32083;BME280;18597;48.328;7.932;2023-02-02T04:56:44;100566.78;;;5.38;100.00
32083;BME280;18597;48.328;7.932;2023-02-02T04:59:10;100572.38;;;5.32;100.00
32083;BME280;18597;48.328;7.932;2023-02-02T05:01:36;100578.69;;;5.29;100.00
32083;BME280;18597;48.328;7.932;2023-02-02T05:04:02;100577.38;;;5.38;100.00
32083;BME280;18597;48.328;7.932;2023-02-02T05:06:28;100580.16;;;5.35;100.00
32083;BME280;18597;48.328;7.932;2023-02-02T05:08:54;100576.66;;;5.34;100.00
32083;BME280;18597;48.328;7.932;2023-02-02T05:11:22;100582.22;;;5.29;100.00
32083;BME280;18597;48.328;7.932;2023-02-02T05:13:51;100578.13;;;5.22;100.00
32083;BME280;18597;48.328;7.932;2023-02-02T05:16:18;100585.47;;;5.35;100.00
32083;BME280;18597;48.328;7.932;2023-02-02T05:18:54;100593.22;;;5.20;100.00
32083;BME280;18597;48.328;7.932;2023-02-02T05:21:21;100586.41;;;5.34;100.00
32083;BME280;18597;48.328;7.932;2023-02-02T05:23:47;100594.81;;;5.24;100.00
32083;BME280;18597;48.328;7.932;2023-02-02T05:26:18;100588.78;;;5.21;100.00
32083;BME280;18597;48.328;7.932;2023-02-02T05:28:45;100588.97;;;5.35;100.00
32083;BME280;18597;48.328;7.932;2023-02-02T05:31:11;100586.03;;;5.41;100.00
32083;BME280;18597;48.328;7.932;2023-02-02T05:33:37;100589.16;;;5.49;100.00
32083;BME280;18597;48.328;7.932;2023-02-02T05:36:04;100583.56;;;5.55;100.00
32083;BME280;18597;48.328;7.932;2023-02-02T05:38:30;100592.28;;;5.57;100.00
32083;BME280;18597;48.328;7.932;2023-02-02T05:40:56;100589.41;;;5.62;100.00
32083;BME280;18597;48.328;7.932;2023-02-02T05:43:25;100588.00;;;5.55;100.00
32083;BME280;18597;48.328;7.932;2023-02-02T05:45:51;100588.16;;;5.52;100.00
32083;BME280;18597;48.328;7.932;2023-02-02T05:48:18;100594.25;;;5.54;100.00
32083;BME280;18597;48.328;7.932;2023-02-02T05:50:53;100587.25;;;5.53;100.00
32083;BME280;18597;48.328;7.932;2023-02-02T05:53:20;100588.56;;;5.62;100.00
32083;BME280;18597;48.328;7.932;2023-02-02T05:55:46;100597.03;;;5.51;100.00
32083;BME280;18597;48.328;7.932;2023-02-02T05:58:12;100589.63;;;5.57;100.00
32083;BME280;18597;48.328;7.932;2023-02-02T06:00:38;100590.75;;;5.53;100.00
32083;BME280;18597;48.328;7.932;2023-02-02T06:03:03;100588.66;;;5.60;100.00
32083;BME280;18597;48.328;7.932;2023-02-02T06:05:29;100599.25;;;5.60;100.00
32083;BME280;18597;48.328;7.932;2023-02-02T06:07:55;100597.94;;;5.69;100.00
32083;BME280;18597;48.328;7.932;2023-02-02T06:10:21;100602.94;;;5.75;100.00
32083;BME280;18597;48.328;7.932;2023-02-02T06:12:46;100601.28;;;5.72;100.00
32083;BME280;18597;48.328;7.932;2023-02-02T06:15:12;100599.66;;;5.87;100.00
32083;BME280;18597;48.328;7.932;2023-02-02T06:17:38;100595.19;;;5.88;100.00
32083;BME280;18597;48.328;7.932;2023-02-02T06:20:04;100604.00;;;5.88;100.00
32083;BME280;18597;48.328;7.932;2023-02-02T06:22:31;100607.50;;;5.89;100.00
32083;BME280;18597;48.328;7.932;2023-02-02T06:24:57;100604.94;;;5.87;100.00
32083;BME280;18597;48.328;7.932;2023-02-02T06:27:24;100609.22;;;5.91;100.00
32083;BME280;18597;48.328;7.932;2023-02-02T06:29:50;100623.69;;;5.84;100.00
32083;BME280;18597;48.328;7.932;2023-02-02T06:32:16;100623.38;;;5.90;100.00
32083;BME280;18597;48.328;7.932;2023-02-02T06:34:41;100634.75;;;5.75;100.00
32083;BME280;18597;48.328;7.932;2023-02-02T06:37:07;100636.47;;;5.76;100.00
32083;BME280;18597;48.328;7.932;2023-02-02T06:39:33;100638.09;;;5.78;100.00
32083;BME280;18597;48.328;7.932;2023-02-02T06:41:59;100644.63;;;5.71;100.00
32083;BME280;18597;48.328;7.932;2023-02-02T06:44:25;100649.72;;;5.76;100.00
32083;BME280;18597;48.328;7.932;2023-02-02T06:46:51;100663.19;;;5.71;100.00
32083;BME280;18597;48.328;7.932;2023-02-02T06:49:17;100659.00;;;5.84;100.00
32083;BME280;18597;48.328;7.932;2023-02-02T06:51:43;100657.00;;;5.90;100.00
32083;BME280;18597;48.328;7.932;2023-02-02T06:54:08;100665.34;;;5.82;100.00
32083;BME280;18597;48.328;7.932;2023-02-02T06:56:34;100668.84;;;5.82;100.00
32083;BME280;18597;48.328;7.932;2023-02-02T06:59:00;100661.28;;;5.75;100.00
32083;BME280;18597;48.328;7.932;2023-02-02T07:01:26;100653.38;;;5.73;100.00
32083;BME280;18597;48.328;7.932;2023-02-02T07:03:52;100662.19;;;5.74;100.00
32083;BME280;18597;48.328;7.932;2023-02-02T07:06:23;100660.94;;;5.81;100.00
32083;BME280;18597;48.328;7.932;2023-02-02T07:08:50;100654.88;;;5.79;100.00
32083;BME280;18597;48.328;7.932;2023-02-02T07:11:16;100660.03;;;5.82;100.00
32083;BME280;18597;48.328;7.932;2023-02-02T07:13:44;100668.91;;;5.81;100.00
32083;BME280;18597;48.328;7.932;2023-02-02T07:16:11;100662.31;;;5.90;100.00
32083;BME280;18597;48.328;7.932;2023-02-02T07:18:38;100672.00;;;5.91;100.00
32083;BME280;18597;48.328;7.932;2023-02-02T07:21:05;100663.88;;;5.94;100.00
32083;BME280;18597;48.328;7.932;2023-02-02T07:23:32;100670.91;;;6.12;100.00
32083;BME280;18597;48.328;7.932;2023-02-02T07:26:06;100658.91;;;6.05;100.00
32083;BME280;18597;48.328;7.932;2023-02-02T07:28:33;100665.25;;;6.20;100.00
32083;BME280;18597;48.328;7.932;2023-02-02T07:30:59;100665.59;;;6.12;100.00
32083;BME280;18597;48.328;7.932;2023-02-02T07:33:26;100661.22;;;6.11;100.00
32083;BME280;18597;48.328;7.932;2023-02-02T07:35:52;100660.63;;;6.06;100.00
32083;BME280;18597;48.328;7.932;2023-02-02T07:38:18;100661.69;;;6.19;100.00
32083;BME280;18597;48.328;7.932;2023-02-02T07:40:44;100657.50;;;6.15;100.00
32083;BME280;18597;48.328;7.932;2023-02-02T07:43:11;100653.91;;;6.16;100.00
32083;BME280;18597;48.328;7.932;2023-02-02T07:45:36;100651.09;;;6.19;100.00
32083;BME280;18597;48.328;7.932;2023-02-02T07:48:03;100654.38;;;6.24;100.00
32083;BME280;18597;48.328;7.932;2023-02-02T07:50:30;100665.94;;;6.23;100.00
32083;BME280;18597;48.328;7.932;2023-02-02T07:52:58;100671.53;;;6.17;100.00
32083;BME280;18597;48.328;7.932;2023-02-02T07:55:24;100668.13;;;6.15;100.00
32083;BME280;18597;48.328;7.932;2023-02-02T07:57:51;100662.72;;;6.17;100.00
32083;BME280;18597;48.328;7.932;2023-02-02T08:00:20;100655.94;;;6.11;100.00
32083;BME280;18597;48.328;7.932;2023-02-02T08:02:48;100650.31;;;6.17;100.00
32083;BME280;18597;48.328;7.932;2023-02-02T08:05:14;100643.13;;;6.19;100.00
32083;BME280;18597;48.328;7.932;2023-02-02T08:07:40;100644.38;;;6.12;100.00
32083;BME280;18597;48.328;7.932;2023-02-02T08:10:06;100650.00;;;6.23;100.00
32083;BME280;18597;48.328;7.932;2023-02-02T08:12:32;100646.41;;;6.24;100.00
32083;BME280;18597;48.328;7.932;2023-02-02T08:14:58;100652.66;;;6.23;100.00
32083;BME280;18597;48.328;7.932;2023-02-02T08:17:23;100652.50;;;6.26;100.00
32083;BME280;18597;48.328;7.932;2023-02-02T08:19:49;100647.50;;;6.37;100.00
32083;BME280;18597;48.328;7.932;2023-02-02T08:22:15;100643.50;;;6.46;100.00
32083;BME280;18597;48.328;7.932;2023-02-02T08:24:41;100640.91;;;6.62;100.00
32083;BME280;18597;48.328;7.932;2023-02-02T08:27:08;100641.88;;;6.77;100.00
32083;BME280;18597;48.328;7.932;2023-02-02T08:29:35;100637.63;;;6.90;100.00
32083;BME280;18597;48.328;7.932;2023-02-02T08:32:03;100640.38;;;6.88;100.00
32083;BME280;18597;48.328;7.932;2023-02-02T08:34:29;100637.31;;;6.96;100.00
32083;BME280;18597;48.328;7.932;2023-02-02T08:36:55;100634.28;;;7.02;100.00
32083;BME280;18597;48.328;7.932;2023-02-02T08:39:20;100637.22;;;6.98;100.00
32083;BME280;18597;48.328;7.932;2023-02-02T08:41:47;100659.47;;;6.95;100.00
32083;BME280;18597;48.328;7.932;2023-02-02T08:44:14;100660.50;;;6.92;100.00
32083;BME280;18597;48.328;7.932;2023-02-02T08:46:41;100669.59;;;6.88;100.00
32083;BME280;18597;48.328;7.932;2023-02-02T08:49:12;100658.53;;;6.80;100.00
32083;BME280;18597;48.328;7.932;2023-02-02T08:51:38;100661.94;;;6.82;100.00
32083;BME280;18597;48.328;7.932;2023-02-02T08:54:04;100651.91;;;6.87;100.00
32083;BME280;18597;48.328;7.932;2023-02-02T08:56:29;100663.19;;;7.08;100.00
32083;BME280;18597;48.328;7.932;2023-02-02T08:58:57;100669.63;;;7.20;100.00
32083;BME280;18597;48.328;7.932;2023-02-02T09:01:26;100677.09;;;7.29;100.00
32083;BME280;18597;48.328;7.932;2023-02-02T09:03:55;100690.22;;;7.32;100.00
32083;BME280;18597;48.328;7.932;2023-02-02T09:06:22;100694.84;;;7.29;100.00
32083;BME280;18597;48.328;7.932;2023-02-02T09:08:50;100693.28;;;7.24;100.00
32083;BME280;18597;48.328;7.932;2023-02-02T09:11:22;100699.63;;;7.22;100.00
32083;BME280;18597;48.328;7.932;2023-02-02T09:13:53;100704.41;;;7.48;100.00
32083;BME280;18597;48.328;7.932;2023-02-02T09:16:20;100721.13;;;7.66;100.00
32083;BME280;18597;48.328;7.932;2023-02-02T09:18:46;100716.97;;;7.61;100.00
32083;BME280;18597;48.328;7.932;2023-02-02T09:21:14;100723.59;;;7.69;100.00
32083;BME280;18597;48.328;7.932;2023-02-02T09:23:42;100732.28;;;7.73;100.00
32083;BME280;18597;48.328;7.932;2023-02-02T09:26:21;100730.69;;;7.37;100.00
32083;BME280;18597;48.328;7.932;2023-02-02T09:28:52;100741.66;;;7.31;100.00
32083;BME280;18597;48.328;7.932;2023-02-02T09:31:19;100743.66;;;7.28;100.00
32083;BME280;18597;48.328;7.932;2023-02-02T09:33:45;100750.59;;;7.46;100.00
32083;BME280;18597;48.328;7.932;2023-02-02T09:36:19;100740.16;;;7.43;100.00
32083;BME280;18597;48.328;7.932;2023-02-02T09:38:46;100746.41;;;7.42;100.00
32083;BME280;18597;48.328;7.932;2023-02-02T09:47:22;100755.06;;;7.45;100.00
32083;BME280;18597;48.328;7.932;2023-02-02T09:50:21;100750.38;;;7.50;100.00
32083;BME280;18597;48.328;7.932;2023-02-02T09:53:22;100747.38;;;7.57;100.00
32083;BME280;18597;48.328;7.932;2023-02-02T09:55:56;100757.47;;;7.50;100.00
32083;BME280;18597;48.328;7.932;2023-02-02T09:58:31;100752.69;;;7.41;100.00
32083;BME280;18597;48.328;7.932;2023-02-02T10:01:21;100758.31;;;7.35;100.00
32083;BME280;18597;48.328;7.932;2023-02-02T10:04:44;100749.94;;;7.42;100.00
32083;BME280;18597;48.328;7.932;2023-02-02T10:07:06;100743.66;;;7.43;100.00
32083;BME280;18597;48.328;7.932;2023-02-02T10:09:41;100746.31;;;7.43;100.00
32083;BME280;18597;48.328;7.932;2023-02-02T10:12:51;100745.13;;;7.49;100.00
32083;BME280;18597;48.328;7.932;2023-02-02T10:16:02;100759.97;;;7.53;100.00
32083;BME280;18597;48.328;7.932;2023-02-02T10:18:46;100758.69;;;7.60;100.00
32083;BME280;18597;48.328;7.932;2023-02-02T10:21:34;100753.38;;;7.60;100.00
32083;BME280;18597;48.328;7.932;2023-02-02T10:24:03;100765.03;;;7.58;100.00
32083;BME280;18597;48.328;7.932;2023-02-02T10:26:41;100774.88;;;7.56;100.00
32083;BME280;18597;48.328;7.932;2023-02-02T10:30:02;100775.38;;;7.46;100.00
32083;BME280;18597;48.328;7.932;2023-02-02T10:37:46;100774.84;;;7.73;100.00
32083;BME280;18597;48.328;7.932;2023-02-02T10:46:44;100764.28;;;8.03;100.00
32083;BME280;18597;48.328;7.932;2023-02-02T10:51:58;100763.97;;;8.23;100.00
32083;BME280;18597;48.328;7.932;2023-02-02T10:55:17;100769.13;;;8.26;100.00
32083;BME280;18597;48.328;7.932;2023-02-02T10:58:00;100763.09;;;8.23;100.00
32083;BME280;18597;48.328;7.932;2023-02-02T11:00:51;100764.16;;;8.20;100.00
32083;BME280;18597;48.328;7.932;2023-02-02T11:03:22;100765.09;;;8.19;100.00
32083;BME280;18597;48.328;7.932;2023-02-02T11:05:49;100760.03;;;8.15;100.00
32083;BME280;18597;48.328;7.932;2023-02-02T11:08:45;100747.56;;;8.15;100.00
32083;BME280;18597;48.328;7.932;2023-02-02T11:11:33;100749.16;;;8.03;100.00
32083;BME280;18597;48.328;7.932;2023-02-02T11:16:43;100751.97;;;8.00;100.00
32083;BME280;18597;48.328;7.932;2023-02-02T11:21:55;100740.81;;;8.10;100.00
32083;BME280;18597;48.328;7.932;2023-02-02T11:24:29;100732.91;;;8.24;100.00
32083;BME280;18597;48.328;7.932;2023-02-02T11:27:22;100736.31;;;8.26;100.00
32083;BME280;18597;48.328;7.932;2023-02-02T11:29:51;100744.06;;;8.15;100.00
32083;BME280;18597;48.328;7.932;2023-02-02T11:32:29;100750.19;;;8.17;100.00
32083;BME280;18597;48.328;7.932;2023-02-02T11:38:14;100741.75;;;8.24;100.00
32083;BME280;18597;48.328;7.932;2023-02-02T11:40:53;100741.81;;;8.23;100.00
32083;BME280;18597;48.328;7.932;2023-02-02T11:43:29;100754.91;;;8.12;100.00
32083;BME280;18597;48.328;7.932;2023-02-02T11:46:00;100746.66;;;8.16;100.00
32083;BME280;18597;48.328;7.932;2023-02-02T11:48:36;100761.75;;;8.16;100.00
32083;BME280;18597;48.328;7.932;2023-02-02T11:51:04;100757.03;;;8.21;100.00
32083;BME280;18597;48.328;7.932;2023-02-02T11:53:44;100755.72;;;8.44;100.00
32083;BME280;18597;48.328;7.932;2023-02-02T11:56:20;100756.81;;;8.55;100.00
32083;BME280;18597;48.328;7.932;2023-02-02T11:58:50;100761.34;;;8.53;100.00
32083;BME280;18597;48.328;7.932;2023-02-02T12:01:29;100748.97;;;8.52;100.00
32083;BME280;18597;48.328;7.932;2023-02-02T12:03:59;100743.88;;;8.64;100.00
32083;BME280;18597;48.328;7.932;2023-02-02T12:06:35;100749.13;;;8.65;100.00
32083;BME280;18597;48.328;7.932;2023-02-02T12:09:13;100751.13;;;8.61;100.00
32083;BME280;18597;48.328;7.932;2023-02-02T12:15:00;100747.22;;;8.37;100.00
32083;BME280;18597;48.328;7.932;2023-02-02T12:17:39;100753.69;;;8.17;100.00
32083;BME280;18597;48.328;7.932;2023-02-02T12:20:25;100745.78;;;8.00;100.00
32083;BME280;18597;48.328;7.932;2023-02-02T12:23:23;100750.56;;;7.79;100.00
32083;BME280;18597;48.328;7.932;2023-02-02T12:26:20;100763.16;;;7.75;100.00
32083;BME280;18597;48.328;7.932;2023-02-02T12:32:45;100759.88;;;7.70;100.00
32083;BME280;18597;48.328;7.932;2023-02-02T12:41:23;100756.72;;;7.64;100.00
32083;BME280;18597;48.328;7.932;2023-02-02T12:44:31;100752.00;;;7.69;100.00
32083;BME280;18597;48.328;7.932;2023-02-02T12:47:18;100752.00;;;7.69;100.00
32083;BME280;18597;48.328;7.932;2023-02-02T12:56:05;100747.91;;;7.79;100.00
32083;BME280;18597;48.328;7.932;2023-02-02T12:59:18;100732.84;;;7.78;100.00
32083;BME280;18597;48.328;7.932;2023-02-02T13:02:26;100746.00;;;7.81;100.00
32083;BME280;18597;48.328;7.932;2023-02-02T13:05:38;100743.91;;;7.70;100.00
32083;BME280;18597;48.328;7.932;2023-02-02T13:08:19;100751.41;;;7.64;100.00
32083;BME280;18597;48.328;7.932;2023-02-02T13:10:53;100762.81;;;7.66;100.00
32083;BME280;18597;48.328;7.932;2023-02-02T13:13:38;100759.00;;;7.54;100.00
32083;BME280;18597;48.328;7.932;2023-02-02T13:16:09;100754.31;;;7.59;100.00
32083;BME280;18597;48.328;7.932;2023-02-02T13:18:47;100752.69;;;7.57;100.00
32083;BME280;18597;48.328;7.932;2023-02-02T13:21:20;100756.53;;;7.51;100.00
32083;BME280;18597;48.328;7.932;2023-02-02T13:23:52;100752.16;;;7.50;100.00
32083;BME280;18597;48.328;7.932;2023-02-02T13:26:25;100740.41;;;7.54;100.00
32083;BME280;18597;48.328;7.932;2023-02-02T13:29:07;100745.13;;;7.49;100.00
32083;BME280;18597;48.328;7.932;2023-02-02T13:31:50;100754.38;;;7.42;100.00
32083;BME280;18597;48.328;7.932;2023-02-02T13:34:34;100758.16;;;7.54;100.00
32083;BME280;18597;48.328;7.932;2023-02-02T13:40:35;100762.53;;;7.55;100.00
32083;BME280;18597;48.328;7.932;2023-02-02T13:43:46;100756.44;;;7.53;100.00
32083;BME280;18597;48.328;7.932;2023-02-02T13:46:47;100752.31;;;7.47;100.00
32083;BME280;18597;48.328;7.932;2023-02-02T13:49:23;100752.16;;;7.50;100.00
32083;BME280;18597;48.328;7.932;2023-02-02T13:55:37;100753.03;;;7.50;100.00
32083;BME280;18597;48.328;7.932;2023-02-02T13:58:25;100764.19;;;7.57;100.00
32083;BME280;18597;48.328;7.932;2023-02-02T14:01:03;100770.16;;;7.45;100.00
32083;BME280;18597;48.328;7.932;2023-02-02T14:03:56;100763.81;;;7.47;100.00
32083;BME280;18597;48.328;7.932;2023-02-02T14:06:25;100765.56;;;7.48;100.00
32083;BME280;18597;48.328;7.932;2023-02-02T14:08:59;100764.66;;;7.48;100.00
32083;BME280;18597;48.328;7.932;2023-02-02T14:11:32;100764.59;;;7.34;100.00
32083;BME280;18597;48.328;7.932;2023-02-02T14:14:15;100773.16;;;7.39;100.00
32083;BME280;18597;48.328;7.932;2023-02-02T14:17:01;100774.81;;;7.41;100.00
32083;BME280;18597;48.328;7.932;2023-02-02T14:24:48;100777.06;;;7.81;100.00
32083;BME280;18597;48.328;7.932;2023-02-02T14:32:31;100793.69;;;7.84;100.00
32083;BME280;18597;48.328;7.932;2023-02-02T14:38:11;100778.06;;;7.78;100.00